sensor_id;sensor_type;location;lat;lon;timestamp;P1;durP1;ratioP1;P2;durP2;ratioP2
36353;SDS011;22383;51.114;13.666;2023-09-19T00:00:39;5.22;;;1.50;;
36353;SDS011;22383;51.114;13.666;2023-09-19T00:03:08;6.13;;;1.42;;
36353;SDS011;22383;51.114;13.666;2023-09-19T00:05:36;3.58;;;1.25;;
36353;SDS011;22383;51.114;13.666;2023-09-19T00:08:11;4.45;;;1.52;;
36353;SDS011;22383;51.114;13.666;2023-09-19T00:10:42;5.60;;;1.33;;
36353;SDS011;22383;51.114;13.666;2023-09-19T00:13:10;2.75;;;1.35;;
36353;SDS011;22383;51.114;13.666;2023-09-19T00:15:46;4.00;;;1.50;;
36353;SDS011;22383;51.114;13.666;2023-09-19T00:18:19;1.85;;;1.48;;
36353;SDS011;22383;51.114;13.666;2023-09-19T00:20:49;4.00;;;1.42;;
36353;SDS011;22383;51.114;13.666;2023-09-19T00:23:19;5.28;;;1.67;;
36353;SDS011;22383;51.114;13.666;2023-09-19T00:25:47;2.92;;;1.17;;
36353;SDS011;22383;51.114;13.666;2023-09-19T00:28:15;2.95;;;1.67;;
36353;SDS011;22383;51.114;13.666;2023-09-19T00:30:44;4.93;;;1.48;;
36353;SDS011;22383;51.114;13.666;2023-09-19T00:33:12;5.20;;;1.85;;
36353;SDS011;22383;51.114;13.666;2023-09-19T00:35:50;3.33;;;1.40;;
36353;SDS011;22383;51.114;13.666;2023-09-19T00:38:20;3.25;;;1.45;;
36353;SDS011;22383;51.114;13.666;2023-09-19T00:40:50;4.63;;;2.33;;
36353;SDS011;22383;51.114;13.666;2023-09-19T00:43:22;2.80;;;1.55;;
36353;SDS011;22383;51.114;13.666;2023-09-19T00:45:52;4.70;;;1.50;;
36353;SDS011;22383;51.114;13.666;2023-09-19T00:48:22;4.95;;;1.58;;
36353;SDS011;22383;51.114;13.666;2023-09-19T00:50:50;6.45;;;1.88;;
36353;SDS011;22383;51.114;13.666;2023-09-19T00:53:18;5.80;;;1.67;;
36353;SDS011;22383;51.114;13.666;2023-09-19T00:55:49;4.20;;;1.98;;
36353;SDS011;22383;51.114;13.666;2023-09-19T00:58:18;2.72;;;1.65;;
36353;SDS011;22383;51.114;13.666;2023-09-19T01:00:49;3.47;;;1.83;;
36353;SDS011;22383;51.114;13.666;2023-09-19T01:03:17;3.55;;;1.77;;
36353;SDS011;22383;51.114;13.666;2023-09-19T01:05:45;3.30;;;1.90;;
36353;SDS011;22383;51.114;13.666;2023-09-19T01:08:13;4.18;;;2.03;;
36353;SDS011;22383;51.114;13.666;2023-09-19T01:10:43;3.80;;;1.77;;
36353;SDS011;22383;51.114;13.666;2023-09-19T01:13:26;9.88;;;2.10;;
36353;SDS011;22383;51.114;13.666;2023-09-19T01:30:12;3.78;;;1.73;;
36353;SDS011;22383;51.114;13.666;2023-09-19T01:32:41;3.97;;;1.60;;
36353;SDS011;22383;51.114;13.666;2023-09-19T01:35:10;4.43;;;2.22;;
36353;SDS011;22383;51.114;13.666;2023-09-19T01:37:40;3.25;;;1.63;;
36353;SDS011;22383;51.114;13.666;2023-09-19T01:40:14;3.95;;;1.50;;
36353;SDS011;22383;51.114;13.666;2023-09-19T01:51:02;2.05;;;1.60;;
36353;SDS011;22383;51.114;13.666;2023-09-19T01:53:48;5.65;;;1.80;;
36353;SDS011;22383;51.114;13.666;2023-09-19T01:56:23;5.40;;;2.28;;
36353;SDS011;22383;51.114;13.666;2023-09-19T01:58:56;4.32;;;1.60;;
36353;SDS011;22383;51.114;13.666;2023-09-19T02:01:26;3.15;;;1.63;;
36353;SDS011;22383;51.114;13.666;2023-09-19T02:03:55;3.75;;;2.03;;
36353;SDS011;22383;51.114;13.666;2023-09-19T02:06:23;3.15;;;1.50;;
36353;SDS011;22383;51.114;13.666;2023-09-19T02:08:54;3.72;;;2.13;;
36353;SDS011;22383;51.114;13.666;2023-09-19T02:11:21;4.60;;;1.80;;
36353;SDS011;22383;51.114;13.666;2023-09-19T02:13:48;3.13;;;1.52;;
36353;SDS011;22383;51.114;13.666;2023-09-19T02:16:21;2.50;;;1.75;;
36353;SDS011;22383;51.114;13.666;2023-09-19T02:18:49;2.78;;;1.40;;
36353;SDS011;22383;51.114;13.666;2023-09-19T02:21:17;5.22;;;1.73;;
36353;SDS011;22383;51.114;13.666;2023-09-19T02:26:14;4.28;;;1.50;;
36353;SDS011;22383;51.114;13.666;2023-09-19T02:28:41;7.30;;;1.67;;
36353;SDS011;22383;51.114;13.666;2023-09-19T02:31:08;3.05;;;1.50;;
36353;SDS011;22383;51.114;13.666;2023-09-19T02:33:36;3.47;;;1.58;;
36353;SDS011;22383;51.114;13.666;2023-09-19T02:36:04;3.17;;;1.73;;
36353;SDS011;22383;51.114;13.666;2023-09-19T02:38:32;4.05;;;2.00;;
36353;SDS011;22383;51.114;13.666;2023-09-19T02:41:00;1.98;;;1.55;;
36353;SDS011;22383;51.114;13.666;2023-09-19T02:45:55;1.90;;;1.20;;
36353;SDS011;22383;51.114;13.666;2023-09-19T02:48:24;4.47;;;1.48;;
36353;SDS011;22383;51.114;13.666;2023-09-19T02:50:52;2.85;;;1.10;;
36353;SDS011;22383;51.114;13.666;2023-09-19T02:53:19;3.33;;;1.50;;
36353;SDS011;22383;51.114;13.666;2023-09-19T02:55:47;2.90;;;1.40;;
36353;SDS011;22383;51.114;13.666;2023-09-19T02:58:15;1.92;;;1.20;;
36353;SDS011;22383;51.114;13.666;2023-09-19T03:00:42;3.92;;;1.48;;
36353;SDS011;22383;51.114;13.666;2023-09-19T03:03:13;2.63;;;1.10;;
36353;SDS011;22383;51.114;13.666;2023-09-19T03:05:43;1.90;;;1.30;;
36353;SDS011;22383;51.114;13.666;2023-09-19T03:08:17;3.08;;;1.20;;
36353;SDS011;22383;51.114;13.666;2023-09-19T03:10:46;3.42;;;1.48;;
36353;SDS011;22383;51.114;13.666;2023-09-19T03:13:15;3.30;;;1.42;;
36353;SDS011;22383;51.114;13.666;2023-09-19T03:15:43;3.35;;;1.55;;
36353;SDS011;22383;51.114;13.666;2023-09-19T03:18:21;3.08;;;1.35;;
36353;SDS011;22383;51.114;13.666;2023-09-19T03:20:53;2.78;;;1.38;;
36353;SDS011;22383;51.114;13.666;2023-09-19T03:23:22;2.42;;;1.30;;
36353;SDS011;22383;51.114;13.666;2023-09-19T03:25:50;1.83;;;1.33;;
36353;SDS011;22383;51.114;13.666;2023-09-19T03:28:22;7.05;;;1.40;;
36353;SDS011;22383;51.114;13.666;2023-09-19T03:30:57;6.40;;;1.33;;
36353;SDS011;22383;51.114;13.666;2023-09-19T03:33:27;1.95;;;1.42;;
36353;SDS011;22383;51.114;13.666;2023-09-19T03:35:54;3.67;;;1.40;;
36353;SDS011;22383;51.114;13.666;2023-09-19T03:40:49;4.32;;;1.23;;
36353;SDS011;22383;51.114;13.666;2023-09-19T03:43:17;3.38;;;1.63;;
36353;SDS011;22383;51.114;13.666;2023-09-19T03:45:45;1.80;;;1.20;;
36353;SDS011;22383;51.114;13.666;2023-09-19T03:48:13;5.53;;;1.52;;
36353;SDS011;22383;51.114;13.666;2023-09-19T03:50:41;5.70;;;1.30;;
36353;SDS011;22383;51.114;13.666;2023-09-19T03:53:10;4.00;;;2.00;;
36353;SDS011;22383;51.114;13.666;2023-09-19T03:55:38;6.18;;;1.23;;
36353;SDS011;22383;51.114;13.666;2023-09-19T03:58:08;3.58;;;1.25;;
36353;SDS011;22383;51.114;13.666;2023-09-19T04:00:35;2.30;;;1.25;;
36353;SDS011;22383;51.114;13.666;2023-09-19T04:03:05;4.70;;;1.55;;
36353;SDS011;22383;51.114;13.666;2023-09-19T04:05:33;4.20;;;1.42;;
36353;SDS011;22383;51.114;13.666;2023-09-19T04:08:01;2.03;;;1.20;;
36353;SDS011;22383;51.114;13.666;2023-09-19T04:10:29;3.22;;;1.48;;
36353;SDS011;22383;51.114;13.666;2023-09-19T04:12:56;1.95;;;1.17;;
36353;SDS011;22383;51.114;13.666;2023-09-19T04:15:24;7.55;;;1.58;;
36353;SDS011;22383;51.114;13.666;2023-09-19T04:17:54;4.72;;;1.30;;
36353;SDS011;22383;51.114;13.666;2023-09-19T04:20:22;2.22;;;1.35;;
36353;SDS011;22383;51.114;13.666;2023-09-19T04:22:50;2.30;;;1.38;;
36353;SDS011;22383;51.114;13.666;2023-09-19T04:25:17;2.15;;;1.30;;
36353;SDS011;22383;51.114;13.666;2023-09-19T04:27:45;4.68;;;1.58;;
36353;SDS011;22383;51.114;13.666;2023-09-19T04:30:16;2.85;;;1.30;;
36353;SDS011;22383;51.114;13.666;2023-09-19T04:32:43;2.53;;;1.60;;
36353;SDS011;22383;51.114;13.666;2023-09-19T04:35:10;5.35;;;1.73;;
36353;SDS011;22383;51.114;13.666;2023-09-19T04:37:41;3.95;;;1.63;;
36353;SDS011;22383;51.114;13.666;2023-09-19T04:40:09;2.63;;;1.30;;
36353;SDS011;22383;51.114;13.666;2023-09-19T04:42:45;2.40;;;1.55;;
36353;SDS011;22383;51.114;13.666;2023-09-19T04:45:13;3.13;;;1.50;;
36353;SDS011;22383;51.114;13.666;2023-09-19T04:47:41;3.60;;;1.30;;
36353;SDS011;22383;51.114;13.666;2023-09-19T04:50:10;3.88;;;1.60;;
36353;SDS011;22383;51.114;13.666;2023-09-19T04:52:41;3.80;;;1.35;;
36353;SDS011;22383;51.114;13.666;2023-09-19T04:55:12;6.85;;;1.50;;
36353;SDS011;22383;51.114;13.666;2023-09-19T04:57:47;4.95;;;1.45;;
36353;SDS011;22383;51.114;13.666;2023-09-19T05:00:16;4.93;;;2.20;;
36353;SDS011;22383;51.114;13.666;2023-09-19T05:02:46;5.47;;;1.27;;
36353;SDS011;22383;51.114;13.666;2023-09-19T05:05:15;4.22;;;1.42;;
36353;SDS011;22383;51.114;13.666;2023-09-19T05:07:50;3.78;;;1.55;;
36353;SDS011;22383;51.114;13.666;2023-09-19T05:10:18;7.65;;;2.03;;
36353;SDS011;22383;51.114;13.666;2023-09-19T05:12:46;5.15;;;1.48;;
36353;SDS011;22383;51.114;13.666;2023-09-19T05:15:15;3.08;;;1.40;;
36353;SDS011;22383;51.114;13.666;2023-09-19T05:17:50;3.55;;;1.38;;
36353;SDS011;22383;51.114;13.666;2023-09-19T05:20:23;5.07;;;1.80;;
36353;SDS011;22383;51.114;13.666;2023-09-19T05:23:06;4.78;;;1.60;;
36353;SDS011;22383;51.114;13.666;2023-09-19T05:25:40;3.78;;;1.45;;
36353;SDS011;22383;51.114;13.666;2023-09-19T05:28:08;3.22;;;1.70;;
36353;SDS011;22383;51.114;13.666;2023-09-19T05:30:39;5.68;;;1.77;;
36353;SDS011;22383;51.114;13.666;2023-09-19T05:35:35;3.67;;;1.42;;
36353;SDS011;22383;51.114;13.666;2023-09-19T05:39:14;3.20;;;1.38;;
36353;SDS011;22383;51.114;13.666;2023-09-19T05:41:42;1.70;;;1.33;;
36353;SDS011;22383;51.114;13.666;2023-09-19T05:44:09;2.85;;;1.70;;
36353;SDS011;22383;51.114;13.666;2023-09-19T05:46:36;2.28;;;1.42;;
36353;SDS011;22383;51.114;13.666;2023-09-19T05:49:03;3.65;;;1.42;;
36353;SDS011;22383;51.114;13.666;2023-09-19T05:51:31;5.75;;;1.73;;
36353;SDS011;22383;51.114;13.666;2023-09-19T05:53:58;6.93;;;1.67;;
36353;SDS011;22383;51.114;13.666;2023-09-19T05:56:26;2.60;;;1.50;;
36353;SDS011;22383;51.114;13.666;2023-09-19T05:58:54;2.00;;;1.60;;
36353;SDS011;22383;51.114;13.666;2023-09-19T06:01:21;2.90;;;1.83;;
36353;SDS011;22383;51.114;13.666;2023-09-19T06:03:49;2.83;;;1.67;;
36353;SDS011;22383;51.114;13.666;2023-09-19T06:06:16;2.92;;;1.63;;
36353;SDS011;22383;51.114;13.666;2023-09-19T06:08:44;4.10;;;1.80;;
36353;SDS011;22383;51.114;13.666;2023-09-19T06:11:11;6.68;;;1.80;;
36353;SDS011;22383;51.114;13.666;2023-09-19T06:13:38;2.42;;;1.30;;
36353;SDS011;22383;51.114;13.666;2023-09-19T06:16:06;4.35;;;1.40;;
36353;SDS011;22383;51.114;13.666;2023-09-19T06:18:33;6.72;;;1.95;;
36353;SDS011;22383;51.114;13.666;2023-09-19T06:21:01;3.78;;;1.60;;
36353;SDS011;22383;51.114;13.666;2023-09-19T06:23:32;4.18;;;1.35;;
36353;SDS011;22383;51.114;13.666;2023-09-19T06:25:59;3.25;;;2.33;;
36353;SDS011;22383;51.114;13.666;2023-09-19T06:28:27;5.07;;;1.40;;
36353;SDS011;22383;51.114;13.666;2023-09-19T06:30:55;2.88;;;1.60;;
36353;SDS011;22383;51.114;13.666;2023-09-19T06:33:22;4.78;;;1.70;;
36353;SDS011;22383;51.114;13.666;2023-09-19T06:35:49;5.18;;;1.75;;
36353;SDS011;22383;51.114;13.666;2023-09-19T06:38:19;4.20;;;1.80;;
36353;SDS011;22383;51.114;13.666;2023-09-19T06:40:46;2.25;;;1.63;;
36353;SDS011;22383;51.114;13.666;2023-09-19T06:43:14;1.80;;;1.15;;
36353;SDS011;22383;51.114;13.666;2023-09-19T06:45:41;2.22;;;1.35;;
36353;SDS011;22383;51.114;13.666;2023-09-19T06:50:37;3.15;;;1.48;;
36353;SDS011;22383;51.114;13.666;2023-09-19T06:53:05;4.60;;;1.35;;
36353;SDS011;22383;51.114;13.666;2023-09-19T06:55:32;3.33;;;1.38;;
36353;SDS011;22383;51.114;13.666;2023-09-19T06:58:01;5.40;;;2.03;;
36353;SDS011;22383;51.114;13.666;2023-09-19T07:00:28;4.05;;;1.30;;
36353;SDS011;22383;51.114;13.666;2023-09-19T07:02:59;4.38;;;1.50;;
36353;SDS011;22383;51.114;13.666;2023-09-19T07:05:31;4.78;;;2.30;;
36353;SDS011;22383;51.114;13.666;2023-09-19T07:07:59;2.83;;;2.30;;
36353;SDS011;22383;51.114;13.666;2023-09-19T07:10:28;3.03;;;2.05;;
36353;SDS011;22383;51.114;13.666;2023-09-19T07:12:56;2.22;;;1.60;;
36353;SDS011;22383;51.114;13.666;2023-09-19T07:15:25;3.00;;;1.60;;
36353;SDS011;22383;51.114;13.666;2023-09-19T07:17:53;3.78;;;1.67;;
36353;SDS011;22383;51.114;13.666;2023-09-19T07:20:21;4.90;;;1.30;;
36353;SDS011;22383;51.114;13.666;2023-09-19T07:22:50;2.85;;;1.63;;
36353;SDS011;22383;51.114;13.666;2023-09-19T07:25:17;1.70;;;1.08;;
36353;SDS011;22383;51.114;13.666;2023-09-19T07:30:12;3.00;;;1.30;;
36353;SDS011;22383;51.114;13.666;2023-09-19T07:32:40;4.85;;;1.33;;
36353;SDS011;22383;51.114;13.666;2023-09-19T07:35:08;4.10;;;1.00;;
36353;SDS011;22383;51.114;13.666;2023-09-19T07:37:35;3.28;;;0.90;;
36353;SDS011;22383;51.114;13.666;2023-09-19T07:40:03;3.65;;;1.08;;
36353;SDS011;22383;51.114;13.666;2023-09-19T07:42:36;2.55;;;1.17;;
36353;SDS011;22383;51.114;13.666;2023-09-19T07:45:06;1.88;;;1.30;;
36353;SDS011;22383;51.114;13.666;2023-09-19T07:47:44;2.33;;;1.27;;
36353;SDS011;22383;51.114;13.666;2023-09-19T07:50:13;4.53;;;4.00;;
36353;SDS011;22383;51.114;13.666;2023-09-19T07:52:41;4.50;;;1.48;;
36353;SDS011;22383;51.114;13.666;2023-09-19T07:55:09;4.35;;;3.53;;
36353;SDS011;22383;51.114;13.666;2023-09-19T07:57:43;3.38;;;1.38;;
36353;SDS011;22383;51.114;13.666;2023-09-19T08:02:41;3.63;;;2.35;;
36353;SDS011;22383;51.114;13.666;2023-09-19T08:05:11;6.55;;;5.13;;
36353;SDS011;22383;51.114;13.666;2023-09-19T08:07:43;2.47;;;2.15;;
36353;SDS011;22383;51.114;13.666;2023-09-19T08:10:12;3.70;;;1.48;;
36353;SDS011;22383;51.114;13.666;2023-09-19T08:17:41;1.80;;;0.95;;
36353;SDS011;22383;51.114;13.666;2023-09-19T08:22:47;2.67;;;1.08;;
36353;SDS011;22383;51.114;13.666;2023-09-19T08:25:15;3.63;;;3.28;;
36353;SDS011;22383;51.114;13.666;2023-09-19T08:27:46;3.42;;;1.33;;
36353;SDS011;22383;51.114;13.666;2023-09-19T08:30:17;4.38;;;2.95;;
36353;SDS011;22383;51.114;13.666;2023-09-19T08:32:58;4.40;;;3.97;;
36353;SDS011;22383;51.114;13.666;2023-09-19T08:35:31;4.80;;;4.28;;
36353;SDS011;22383;51.114;13.666;2023-09-19T08:37:59;4.75;;;3.90;;
36353;SDS011;22383;51.114;13.666;2023-09-19T08:40:31;4.97;;;2.60;;
36353;SDS011;22383;51.114;13.666;2023-09-19T08:43:00;3.58;;;1.77;;
36353;SDS011;22383;51.114;13.666;2023-09-19T08:45:27;1.70;;;0.77;;
36353;SDS011;22383;51.114;13.666;2023-09-19T08:56:10;8.23;;;5.90;;
36353;SDS011;22383;51.114;13.666;2023-09-19T08:58:47;12.75;;;11.45;;
36353;SDS011;22383;51.114;13.666;2023-09-19T09:01:18;18.30;;;16.58;;
36353;SDS011;22383;51.114;13.666;2023-09-19T09:03:55;11.85;;;10.52;;
36353;SDS011;22383;51.114;13.666;2023-09-19T09:06:24;9.98;;;8.70;;
36353;SDS011;22383;51.114;13.666;2023-09-19T09:08:52;17.52;;;15.82;;
36353;SDS011;22383;51.114;13.666;2023-09-19T09:11:20;8.55;;;7.80;;
36353;SDS011;22383;51.114;13.666;2023-09-19T09:13:48;13.02;;;11.50;;
36353;SDS011;22383;51.114;13.666;2023-09-19T09:16:16;10.27;;;8.13;;
36353;SDS011;22383;51.114;13.666;2023-09-19T09:18:47;12.60;;;11.10;;
36353;SDS011;22383;51.114;13.666;2023-09-19T09:21:21;8.80;;;8.00;;
36353;SDS011;22383;51.114;13.666;2023-09-19T09:23:49;19.08;;;17.10;;
36353;SDS011;22383;51.114;13.666;2023-09-19T09:29:07;20.75;;;18.05;;
36353;SDS011;22383;51.114;13.666;2023-09-19T09:31:35;15.80;;;14.15;;
36353;SDS011;22383;51.114;13.666;2023-09-19T09:34:02;22.63;;;18.17;;
36353;SDS011;22383;51.114;13.666;2023-09-19T09:36:33;15.43;;;13.95;;
36353;SDS011;22383;51.114;13.666;2023-09-19T09:39:04;14.70;;;12.82;;
36353;SDS011;22383;51.114;13.666;2023-09-19T09:41:52;15.50;;;13.02;;
36353;SDS011;22383;51.114;13.666;2023-09-19T09:44:19;14.68;;;13.13;;
36353;SDS011;22383;51.114;13.666;2023-09-19T09:46:47;17.52;;;15.68;;
36353;SDS011;22383;51.114;13.666;2023-09-19T09:49:25;25.42;;;19.15;;
36353;SDS011;22383;51.114;13.666;2023-09-19T09:52:01;23.50;;;17.02;;
36353;SDS011;22383;51.114;13.666;2023-09-19T09:54:37;18.88;;;16.45;;
36353;SDS011;22383;51.114;13.666;2023-09-19T09:57:06;19.42;;;17.40;;
36353;SDS011;22383;51.114;13.666;2023-09-19T10:02:17;30.42;;;23.20;;
36353;SDS011;22383;51.114;13.666;2023-09-19T10:04:52;26.17;;;21.73;;
36353;SDS011;22383;51.114;13.666;2023-09-19T10:07:41;29.50;;;24.95;;
36353;SDS011;22383;51.114;13.666;2023-09-19T10:13:30;21.95;;;19.65;;
36353;SDS011;22383;51.114;13.666;2023-09-19T10:16:00;26.50;;;21.10;;
36353;SDS011;22383;51.114;13.666;2023-09-19T10:18:36;25.17;;;18.38;;
36353;SDS011;22383;51.114;13.666;2023-09-19T10:21:06;26.42;;;23.15;;
36353;SDS011;22383;51.114;13.666;2023-09-19T10:23:36;26.15;;;22.92;;
36353;SDS011;22383;51.114;13.666;2023-09-19T10:26:09;30.83;;;24.70;;
36353;SDS011;22383;51.114;13.666;2023-09-19T10:28:38;24.55;;;21.27;;
36353;SDS011;22383;51.114;13.666;2023-09-19T10:33:36;23.63;;;21.38;;
36353;SDS011;22383;51.114;13.666;2023-09-19T10:36:05;25.63;;;22.67;;
36353;SDS011;22383;51.114;13.666;2023-09-19T10:38:32;25.13;;;21.85;;
36353;SDS011;22383;51.114;13.666;2023-09-19T10:41:02;15.25;;;10.60;;
36353;SDS011;22383;51.114;13.666;2023-09-19T10:43:32;27.67;;;24.70;;
36353;SDS011;22383;51.114;13.666;2023-09-19T10:46:03;25.23;;;19.55;;
36353;SDS011;22383;51.114;13.666;2023-09-19T10:48:34;19.83;;;17.85;;
36353;SDS011;22383;51.114;13.666;2023-09-19T10:51:08;31.15;;;25.65;;
36353;SDS011;22383;51.114;13.666;2023-09-19T10:56:33;21.20;;;19.08;;
36353;SDS011;22383;51.114;13.666;2023-09-19T10:59:09;28.17;;;24.95;;
36353;SDS011;22383;51.114;13.666;2023-09-19T11:01:42;21.48;;;19.25;;
36353;SDS011;22383;51.114;13.666;2023-09-19T11:04:21;23.63;;;21.13;;
36353;SDS011;22383;51.114;13.666;2023-09-19T11:07:03;27.13;;;24.25;;
36353;SDS011;22383;51.114;13.666;2023-09-19T11:09:49;22.33;;;20.00;;
36353;SDS011;22383;51.114;13.666;2023-09-19T11:14:58;23.83;;;21.25;;
36353;SDS011;22383;51.114;13.666;2023-09-19T11:17:32;26.90;;;24.08;;
36353;SDS011;22383;51.114;13.666;2023-09-19T11:28:44;27.85;;;24.80;;
36353;SDS011;22383;51.114;13.666;2023-09-19T11:30:52;22.77;;;20.23;;
36353;SDS011;22383;51.114;13.666;2023-09-19T11:33:30;22.60;;;20.58;;
36353;SDS011;22383;51.114;13.666;2023-09-19T11:44:33;24.15;;;21.77;;
36353;SDS011;22383;51.114;13.666;2023-09-19T11:46:53;26.20;;;23.52;;
36353;SDS011;22383;51.114;13.666;2023-09-19T11:49:28;22.17;;;19.83;;
36353;SDS011;22383;51.114;13.666;2023-09-19T11:51:57;23.17;;;20.75;;
36353;SDS011;22383;51.114;13.666;2023-09-19T11:54:32;21.73;;;19.55;;
36353;SDS011;22383;51.114;13.666;2023-09-19T11:57:00;24.58;;;22.27;;
36353;SDS011;22383;51.114;13.666;2023-09-19T11:59:28;24.90;;;22.45;;
36353;SDS011;22383;51.114;13.666;2023-09-19T12:01:57;31.05;;;28.15;;
36353;SDS011;22383;51.114;13.666;2023-09-19T12:04:34;32.15;;;28.80;;
36353;SDS011;22383;51.114;13.666;2023-09-19T12:07:06;24.40;;;20.65;;
36353;SDS011;22383;51.114;13.666;2023-09-19T12:09:44;26.88;;;24.35;;
36353;SDS011;22383;51.114;13.666;2023-09-19T12:12:20;26.38;;;23.58;;
36353;SDS011;22383;51.114;13.666;2023-09-19T12:14:49;20.15;;;17.17;;
36353;SDS011;22383;51.114;13.666;2023-09-19T12:17:17;22.35;;;20.13;;
36353;SDS011;22383;51.114;13.666;2023-09-19T12:19:50;20.83;;;19.00;;
36353;SDS011;22383;51.114;13.666;2023-09-19T12:22:18;28.15;;;25.38;;
36353;SDS011;22383;51.114;13.666;2023-09-19T12:24:47;32.50;;;29.42;;
36353;SDS011;22383;51.114;13.666;2023-09-19T12:27:15;26.40;;;23.67;;
36353;SDS011;22383;51.114;13.666;2023-09-19T12:29:43;25.80;;;23.25;;
36353;SDS011;22383;51.114;13.666;2023-09-19T12:32:16;23.15;;;20.80;;
36353;SDS011;22383;51.114;13.666;2023-09-19T12:34:52;21.30;;;19.15;;
36353;SDS011;22383;51.114;13.666;2023-09-19T12:37:22;26.92;;;20.65;;
36353;SDS011;22383;51.114;13.666;2023-09-19T12:39:50;24.50;;;22.00;;
36353;SDS011;22383;51.114;13.666;2023-09-19T12:42:22;23.92;;;21.42;;
36353;SDS011;22383;51.114;13.666;2023-09-19T12:44:51;17.42;;;15.82;;
36353;SDS011;22383;51.114;13.666;2023-09-19T12:47:24;30.60;;;27.65;;
36353;SDS011;22383;51.114;13.666;2023-09-19T12:52:46;21.58;;;19.42;;
36353;SDS011;22383;51.114;13.666;2023-09-19T12:55:26;25.70;;;22.90;;
36353;SDS011;22383;51.114;13.666;2023-09-19T13:00:34;27.45;;;24.55;;
36353;SDS011;22383;51.114;13.666;2023-09-19T13:06:02;15.40;;;13.77;;
36353;SDS011;22383;51.114;13.666;2023-09-19T13:08:32;31.10;;;28.23;;
36353;SDS011;22383;51.114;13.666;2023-09-19T13:11:07;23.02;;;20.85;;
36353;SDS011;22383;51.114;13.666;2023-09-19T13:13:38;22.00;;;19.98;;
36353;SDS011;22383;51.114;13.666;2023-09-19T13:16:08;19.73;;;17.98;;
36353;SDS011;22383;51.114;13.666;2023-09-19T13:18:43;27.10;;;24.35;;
36353;SDS011;22383;51.114;13.666;2023-09-19T13:21:26;19.70;;;17.90;;
36353;SDS011;22383;51.114;13.666;2023-09-19T13:23:55;26.13;;;23.70;;
36353;SDS011;22383;51.114;13.666;2023-09-19T13:26:43;28.85;;;26.35;;
36353;SDS011;22383;51.114;13.666;2023-09-19T13:29:10;23.88;;;21.35;;
36353;SDS011;22383;51.114;13.666;2023-09-19T13:31:37;25.88;;;23.50;;
36353;SDS011;22383;51.114;13.666;2023-09-19T13:34:08;27.35;;;24.63;;
36353;SDS011;22383;51.114;13.666;2023-09-19T13:36:35;22.42;;;20.13;;
36353;SDS011;22383;51.114;13.666;2023-09-19T13:39:04;21.55;;;19.55;;
36353;SDS011;22383;51.114;13.666;2023-09-19T13:41:32;18.23;;;16.45;;
36353;SDS011;22383;51.114;13.666;2023-09-19T13:43:59;19.98;;;17.88;;
36353;SDS011;22383;51.114;13.666;2023-09-19T13:46:26;24.90;;;22.48;;
36353;SDS011;22383;51.114;13.666;2023-09-19T13:48:54;22.40;;;20.20;;
36353;SDS011;22383;51.114;13.666;2023-09-19T13:51:22;19.77;;;17.75;;
36353;SDS011;22383;51.114;13.666;2023-09-19T13:53:50;16.73;;;14.95;;
36353;SDS011;22383;51.114;13.666;2023-09-19T13:56:17;14.40;;;12.93;;
36353;SDS011;22383;51.114;13.666;2023-09-19T13:58:44;22.70;;;20.50;;
36353;SDS011;22383;51.114;13.666;2023-09-19T14:01:11;23.30;;;21.15;;
36353;SDS011;22383;51.114;13.666;2023-09-19T14:03:42;18.55;;;16.75;;
36353;SDS011;22383;51.114;13.666;2023-09-19T14:06:14;22.13;;;20.15;;
36353;SDS011;22383;51.114;13.666;2023-09-19T14:08:41;18.02;;;16.27;;
36353;SDS011;22383;51.114;13.666;2023-09-19T14:11:08;20.40;;;18.40;;
36353;SDS011;22383;51.114;13.666;2023-09-19T14:13:36;26.45;;;23.73;;
36353;SDS011;22383;51.114;13.666;2023-09-19T14:16:04;24.95;;;22.67;;
36353;SDS011;22383;51.114;13.666;2023-09-19T14:18:32;19.98;;;16.58;;
36353;SDS011;22383;51.114;13.666;2023-09-19T14:21:06;14.02;;;12.68;;
36353;SDS011;22383;51.114;13.666;2023-09-19T14:23:38;26.38;;;23.95;;
36353;SDS011;22383;51.114;13.666;2023-09-19T14:26:05;24.08;;;20.38;;
36353;SDS011;22383;51.114;13.666;2023-09-19T14:28:33;15.40;;;12.18;;
36353;SDS011;22383;51.114;13.666;2023-09-19T14:31:04;22.35;;;20.13;;
36353;SDS011;22383;51.114;13.666;2023-09-19T14:33:34;21.10;;;19.13;;
36353;SDS011;22383;51.114;13.666;2023-09-19T14:36:03;16.73;;;14.68;;
36353;SDS011;22383;51.114;13.666;2023-09-19T14:38:36;21.23;;;19.00;;
36353;SDS011;22383;51.114;13.666;2023-09-19T14:41:05;21.00;;;18.75;;
36353;SDS011;22383;51.114;13.666;2023-09-19T14:43:33;19.42;;;16.30;;
36353;SDS011;22383;51.114;13.666;2023-09-19T14:46:06;16.92;;;15.13;;
36353;SDS011;22383;51.114;13.666;2023-09-19T14:48:37;21.48;;;19.17;;
36353;SDS011;22383;51.114;13.666;2023-09-19T14:51:06;18.05;;;16.25;;
36353;SDS011;22383;51.114;13.666;2023-09-19T14:53:35;20.50;;;18.42;;
36353;SDS011;22383;51.114;13.666;2023-09-19T14:56:07;13.80;;;12.50;;
36353;SDS011;22383;51.114;13.666;2023-09-19T14:58:36;14.65;;;13.20;;
36353;SDS011;22383;51.114;13.666;2023-09-19T15:01:07;12.32;;;11.10;;
36353;SDS011;22383;51.114;13.666;2023-09-19T15:03:37;13.18;;;11.88;;
36353;SDS011;22383;51.114;13.666;2023-09-19T15:06:07;14.68;;;12.27;;
36353;SDS011;22383;51.114;13.666;2023-09-19T15:08:37;7.03;;;6.30;;
36353;SDS011;22383;51.114;13.666;2023-09-19T15:11:07;12.73;;;11.45;;
36353;SDS011;22383;51.114;13.666;2023-09-19T15:13:35;10.38;;;8.70;;
36353;SDS011;22383;51.114;13.666;2023-09-19T15:16:04;10.05;;;8.63;;
36353;SDS011;22383;51.114;13.666;2023-09-19T15:18:36;9.50;;;5.95;;
36353;SDS011;22383;51.114;13.666;2023-09-19T15:21:08;8.75;;;7.68;;
36353;SDS011;22383;51.114;13.666;2023-09-19T15:23:39;12.55;;;9.93;;
36353;SDS011;22383;51.114;13.666;2023-09-19T15:26:13;12.18;;;9.65;;
36353;SDS011;22383;51.114;13.666;2023-09-19T15:28:44;8.90;;;7.55;;
36353;SDS011;22383;51.114;13.666;2023-09-19T15:31:12;16.08;;;12.70;;
36353;SDS011;22383;51.114;13.666;2023-09-19T15:33:40;14.20;;;12.80;;
36353;SDS011;22383;51.114;13.666;2023-09-19T15:36:08;13.43;;;12.10;;
36353;SDS011;22383;51.114;13.666;2023-09-19T15:41:27;11.93;;;10.65;;
36353;SDS011;22383;51.114;13.666;2023-09-19T15:44:00;24.20;;;19.52;;
36353;SDS011;22383;51.114;13.666;2023-09-19T15:46:32;16.83;;;15.00;;
36353;SDS011;22383;51.114;13.666;2023-09-19T15:49:03;18.83;;;16.77;;
36353;SDS011;22383;51.114;13.666;2023-09-19T15:51:30;15.13;;;12.85;;
36353;SDS011;22383;51.114;13.666;2023-09-19T15:53:58;16.25;;;12.38;;
36353;SDS011;22383;51.114;13.666;2023-09-19T15:56:27;18.63;;;15.50;;
36353;SDS011;22383;51.114;13.666;2023-09-19T15:58:54;13.02;;;11.68;;
36353;SDS011;22383;51.114;13.666;2023-09-19T16:01:23;18.15;;;14.02;;
36353;SDS011;22383;51.114;13.666;2023-09-19T16:03:51;19.83;;;15.60;;
36353;SDS011;22383;51.114;13.666;2023-09-19T16:06:20;16.15;;;12.85;;
36353;SDS011;22383;51.114;13.666;2023-09-19T16:08:53;24.50;;;18.00;;
36353;SDS011;22383;51.114;13.666;2023-09-19T16:11:26;20.20;;;16.00;;
36353;SDS011;22383;51.114;13.666;2023-09-19T16:13:55;30.27;;;13.43;;
36353;SDS011;22383;51.114;13.666;2023-09-19T16:16:23;8.95;;;7.60;;
36353;SDS011;22383;51.114;13.666;2023-09-19T16:18:55;16.92;;;15.02;;
36353;SDS011;22383;51.114;13.666;2023-09-19T16:21:25;15.48;;;13.93;;